Terminal Aerodrome Forecast
Issued by NWS

Home | Current Version | Previous Version | Text Only | Print | Product List | Glossary On
Versions: 1 2 3 4 5 6 7 8 9 10 11 12 13 14 15 16 17 18 19 20 21 22 23 24 25 26 27 28 29
000
FTUS41 KBUF 300541
TAFJHW
TAF
KJHW 300541Z 3006/3106 VRB03KT 5SM -SHRA OVC060
      TEMPO 3006/3009 3SM -SHRA BR BKN045
     FM300900 VRB03KT P6SM VCSH OVC035
     FM301100 00000KT P6SM OVC050
     FM301700 27007KT P6SM -SHRA OVC040 PROB30 3017/3020 5SM -TSRA
      BKN035CB
     FM302200 24005KT P6SM BKN030
     FM310000 VRB03KT P6SM SCT060
      AMD LTD TO CLD VIS AND WIND=

USA.gov is the U.S. government's official web portal to all federal, state and local government web resources and services.